createdAt,value
2022-10-28T00:02:09.897Z,98651.69
2022-10-28T00:04:37.417Z,98658.72
2022-10-28T00:07:05.432Z,98651.13
2022-10-28T00:09:33.051Z,98656.22
2022-10-28T00:12:00.495Z,98660.75
2022-10-28T00:14:27.948Z,98656.84
2022-10-28T00:16:55.403Z,98653.81
2022-10-28T00:19:24.216Z,98647.59
2022-10-28T00:21:51.692Z,98652.03
2022-10-28T00:24:19.175Z,98642.94
2022-10-28T00:26:46.871Z,98656.59
2022-10-28T00:29:16.571Z,98651.69
2022-10-28T00:31:45.004Z,98655.00
2022-10-28T00:34:15.092Z,98660.09
2022-10-28T00:36:45.559Z,98664.84
2022-10-28T00:39:15.352Z,98661.06
2022-10-28T00:41:45.392Z,98658.34
2022-10-28T00:44:57.323Z,98655.00
2022-10-28T00:47:34.463Z,98657.22
2022-10-28T00:50:12.364Z,98654.16
2022-10-28T00:52:42.511Z,98656.59
2022-10-28T00:55:10.687Z,98661.13
2022-10-28T00:57:39.653Z,98658.44
2022-10-28T01:00:08.872Z,98656.94
2022-10-28T01:02:45.579Z,98656.94
2022-10-28T01:05:15.396Z,98657.78
2022-10-28T01:07:44.775Z,98661.50
2022-10-28T01:10:14.391Z,98656.69
2022-10-28T01:12:54.207Z,98662.25
2022-10-28T01:15:34.303Z,98655.84
2022-10-28T01:18:09.948Z,98659.94
2022-10-28T01:21:12.290Z,98663.09
2022-10-28T01:23:53.753Z,98661.41
2022-10-28T01:26:37.455Z,98657.41
2022-10-28T01:29:41.119Z,98643.97
2022-10-28T01:32:18.083Z,98641.81
2022-10-28T01:34:54.029Z,98654.44
2022-10-28T01:37:31.977Z,98646.38
2022-10-28T01:40:09.367Z,98636.66
2022-10-28T01:42:43.243Z,98635.16
2022-10-28T01:45:16.408Z,98635.59
2022-10-28T01:47:51.437Z,98645.34
2022-10-28T01:50:25.225Z,98639.97
2022-10-28T01:52:56.510Z,98636.31
2022-10-28T01:55:28.310Z,98628.28
2022-10-28T01:57:59.843Z,98625.22
2022-10-28T02:00:27.840Z,98616.06
2022-10-28T02:02:57.199Z,98621.06
2022-10-28T02:05:45.430Z,98621.06
2022-10-28T02:08:28.586Z,98617.06
2022-10-28T02:11:07.367Z,98618.75
2022-10-28T02:13:45.251Z,98617.72
2022-10-28T02:16:23.628Z,98622.16
2022-10-28T02:19:02.931Z,98620.31
2022-10-28T02:21:38.010Z,98611.03
2022-10-28T02:24:14.182Z,98617.63
2022-10-28T02:26:47.157Z,98617.63
2022-10-28T02:29:18.515Z,98627.38
2022-10-28T02:31:51.002Z,98619.31
2022-10-28T02:34:24.864Z,98616.41
2022-10-28T02:36:55.450Z,98623.00
2022-10-28T02:39:27.182Z,98618.78
2022-10-28T02:41:58.519Z,98615.09
2022-10-28T02:44:30.146Z,98614.28
2022-10-28T02:47:03.202Z,98612.63
2022-10-28T02:49:34.393Z,98615.09
2022-10-28T02:52:06.875Z,98606.88
2022-10-28T02:54:40.563Z,98614.75
2022-10-28T02:57:11.855Z,98619.13
2022-10-28T02:59:39.331Z,98611.00
2022-10-28T03:02:06.843Z,98612.03
2022-10-28T03:04:35.779Z,98608.50
2022-10-28T03:07:03.265Z,98600.06
2022-10-28T03:09:30.726Z,98596.38
2022-10-28T03:11:58.170Z,98612.34
2022-10-28T03:14:25.627Z,98611.50
2022-10-28T03:16:53.110Z,98611.66
2022-10-28T03:19:20.595Z,98610.47
2022-10-28T03:21:49.386Z,98600.44
2022-10-28T03:24:16.871Z,98606.03
2022-10-28T03:26:44.315Z,98610.56
2022-10-28T03:29:11.766Z,98603.13
2022-10-28T03:31:39.286Z,98602.22
2022-10-28T03:34:06.822Z,98602.28
2022-10-28T03:36:34.343Z,98601.19
2022-10-28T03:39:03.427Z,98589.91
2022-10-28T03:41:30.890Z,98597.13
2022-10-28T03:43:58.342Z,98597.28
2022-10-28T03:46:25.839Z,98601.91
2022-10-28T03:48:53.806Z,98599.44
2022-10-28T03:51:21.581Z,98602.59
2022-10-28T03:53:49.026Z,98606.09
2022-10-28T03:56:17.862Z,98605.28
2022-10-28T03:58:47.907Z,98600.44
2022-10-28T04:01:15.534Z,98602.75
2022-10-28T04:03:43.048Z,98593.03
2022-10-28T04:06:10.830Z,98604.81
2022-10-28T04:08:38.626Z,98607.66
2022-10-28T04:11:06.787Z,98611.56
2022-10-28T04:13:36.034Z,98609.34
2022-10-28T04:16:03.531Z,98612.88
2022-10-28T04:18:31.823Z,98606.81
2022-10-28T04:20:59.492Z,98612.03
2022-10-28T04:23:26.947Z,98604.97
2022-10-28T04:25:55.118Z,98606.56
2022-10-28T04:28:24.055Z,98616.25
2022-10-28T04:30:52.970Z,98608.91
2022-10-28T04:33:20.448Z,98611.16
2022-10-28T04:35:47.951Z,98606.84
2022-10-28T04:38:15.803Z,98614.63
2022-10-28T04:40:43.402Z,98611.72
2022-10-28T04:43:11.659Z,98613.31
2022-10-28T04:45:39.220Z,98605.78
2022-10-28T04:48:09.611Z,98608.56
2022-10-28T04:50:37.263Z,98603.66
2022-10-28T04:53:04.951Z,98605.25
2022-10-28T04:55:32.405Z,98616.00
2022-10-28T04:58:01.633Z,98624.28
2022-10-28T05:00:30.508Z,98629.78
2022-10-28T05:02:58.479Z,98634.22
2022-10-28T05:05:27.453Z,98638.44
2022-10-28T05:07:55.386Z,98634.06
2022-10-28T05:10:23.234Z,98639.56
2022-10-28T05:12:50.838Z,98645.72
2022-10-28T05:15:18.338Z,98633.53
2022-10-28T05:17:47.023Z,98629.16
2022-10-28T05:20:16.566Z,98625.47
2022-10-28T05:22:48.114Z,98622.31
2022-10-28T05:25:15.830Z,98616.47
2022-10-28T05:27:43.326Z,98605.34
2022-10-28T05:30:11.849Z,98592.28
2022-10-28T05:32:39.234Z,98600.97
2022-10-28T05:35:07.687Z,98602.28
2022-10-28T05:37:35.229Z,98612.53
2022-10-28T05:40:04.693Z,98623.38
2022-10-28T05:42:32.320Z,98631.06
2022-10-28T05:44:59.799Z,98619.41
2022-10-28T05:47:27.276Z,98617.13
2022-10-28T05:49:54.776Z,98620.84
2022-10-28T05:52:22.266Z,98626.22
2022-10-28T05:54:49.723Z,98637.41
2022-10-28T05:57:18.535Z,98638.06
2022-10-28T05:59:46.021Z,98629.50
2022-10-28T06:02:15.369Z,98637.00
2022-10-28T06:04:43.087Z,98632.41
2022-10-28T06:07:10.811Z,98625.53
2022-10-28T06:09:38.330Z,98632.22
2022-10-28T06:12:06.718Z,98633.34
2022-10-28T06:14:35.533Z,98633.81
2022-10-28T06:17:06.154Z,98643.69
2022-10-28T06:19:33.660Z,98633.75
2022-10-28T06:22:01.190Z,98642.88
2022-10-28T06:24:28.695Z,98646.59
2022-10-28T06:26:56.184Z,98643.34
2022-10-28T06:29:23.890Z,98645.28
2022-10-28T06:31:52.739Z,98649.25
2022-10-28T06:34:20.210Z,98654.16
2022-10-28T06:36:47.691Z,98658.72
2022-10-28T06:39:15.236Z,98648.38
2022-10-28T06:41:43.064Z,98655.97
2022-10-28T06:44:10.592Z,98665.94
2022-10-28T06:46:39.657Z,98668.91
2022-10-28T06:49:09.047Z,98673.94
2022-10-28T06:51:36.551Z,98687.28
2022-10-28T06:54:04.043Z,98706.25
2022-10-28T06:56:31.507Z,98707.63
2022-10-28T06:58:58.990Z,98717.69
2022-10-28T07:01:26.656Z,98709.94
2022-10-28T07:03:54.245Z,98706.25
2022-10-28T07:06:23.092Z,98707.97
2022-10-28T07:08:50.566Z,98700.09
2022-10-28T07:11:18.910Z,98673.84
2022-10-28T07:13:48.861Z,98628.16
2022-10-28T07:16:16.759Z,98554.75
2022-10-28T07:18:44.227Z,98545.50
2022-10-28T07:21:12.222Z,98577.84
2022-10-28T07:23:41.148Z,98613.56
2022-10-28T07:26:08.631Z,98677.91
2022-10-28T07:28:36.080Z,98695.22
2022-10-28T07:31:04.664Z,98667.16
2022-10-28T07:33:32.231Z,98637.06
2022-10-28T07:35:59.765Z,98646.28
2022-10-28T07:38:27.479Z,98656.47
2022-10-28T07:40:56.326Z,98665.47
2022-10-28T07:43:23.808Z,98669.28
2022-10-28T07:45:56.966Z,98676.63
2022-10-28T07:48:24.550Z,98667.34
2022-10-28T07:50:52.000Z,98652.78
2022-10-28T07:53:20.375Z,98657.13
2022-10-28T07:55:57.538Z,98653.53
2022-10-28T07:58:25.062Z,98648.81
2022-10-28T08:00:52.875Z,98650.09
2022-10-28T08:03:20.574Z,98644.06
2022-10-28T08:05:48.310Z,98637.16
2022-10-28T08:08:15.779Z,98648.78
2022-10-28T08:10:43.622Z,98649.91
2022-10-28T08:13:12.582Z,98646.28
2022-10-28T08:15:40.038Z,98649.50
2022-10-28T08:18:07.514Z,98656.94
2022-10-28T08:20:34.993Z,98652.03
2022-10-28T08:23:04.094Z,98647.47
2022-10-28T08:25:34.239Z,98647.94
2022-10-28T08:28:01.845Z,98652.94
2022-10-28T08:30:36.528Z,98651.56
2022-10-28T08:33:12.594Z,98637.94
2022-10-28T08:35:40.190Z,98644.28
2022-10-28T08:38:07.716Z,98647.09
2022-10-28T08:40:48.251Z,98632.09
2022-10-28T08:43:40.029Z,98635.00
2022-10-28T08:46:22.678Z,98626.81
2022-10-28T08:48:50.182Z,98624.03
2022-10-28T08:51:23.584Z,98622.38
2022-10-28T08:53:56.141Z,98625.56
2022-10-28T08:56:29.655Z,98632.06
2022-10-28T08:59:00.272Z,98627.81
2022-10-28T09:01:38.575Z,98630.97
2022-10-28T09:04:19.478Z,98626.44
2022-10-28T09:06:46.951Z,98619.47
2022-10-28T09:09:21.174Z,98627.06
2022-10-28T09:12:04.083Z,98621.63
2022-10-28T09:14:45.351Z,98629.56
2022-10-28T09:17:20.046Z,98623.19
2022-10-28T09:19:50.842Z,98625.50
2022-10-28T09:22:24.875Z,98626.22
2022-10-28T09:24:55.757Z,98620.84
2022-10-28T09:27:35.598Z,98611.28
2022-10-28T09:30:17.821Z,98607.59
2022-10-28T09:32:54.064Z,98623.81
2022-10-28T09:35:25.928Z,98601.44
2022-10-28T09:37:58.757Z,98611.22
2022-10-28T09:40:29.367Z,98608.78
2022-10-28T09:43:05.469Z,98603.25
2022-10-28T09:45:34.350Z,98609.84
2022-10-28T09:48:11.916Z,98610.16
2022-10-28T09:50:39.626Z,98610.41
2022-10-28T09:53:13.050Z,98611.53
2022-10-28T09:55:40.723Z,98610.28
2022-10-28T09:58:08.226Z,98612.03
2022-10-28T10:00:35.901Z,98611.84
2022-10-28T10:03:07.110Z,98610.97
2022-10-28T10:05:41.571Z,98616.91
2022-10-28T10:08:13.658Z,98616.28
2022-10-28T10:10:53.728Z,98614.19
2022-10-28T10:13:24.698Z,98606.63
2022-10-28T10:15:55.019Z,98616.34
2022-10-28T10:18:28.020Z,98608.28
2022-10-28T10:20:58.447Z,98611.00
2022-10-28T10:23:30.823Z,98616.00
2022-10-28T10:26:00.346Z,98616.78
2022-10-28T10:28:29.012Z,98624.72
2022-10-28T10:30:59.111Z,98626.78
2022-10-28T10:33:33.161Z,98617.19
2022-10-28T10:36:03.843Z,98625.94
2022-10-28T10:38:32.996Z,98614.16
2022-10-28T10:41:00.494Z,98609.50
2022-10-28T10:43:32.583Z,98599.59
2022-10-28T10:46:02.739Z,98593.97
2022-10-28T10:48:33.826Z,98589.69
2022-10-28T10:51:07.525Z,98585.34
2022-10-28T10:53:36.949Z,98569.53
2022-10-28T10:56:08.318Z,98570.88
2022-10-28T10:58:38.792Z,98574.81
2022-10-28T11:01:09.325Z,98561.06
2022-10-28T11:03:47.185Z,98577.25
2022-10-28T11:06:23.900Z,98565.28
2022-10-28T11:08:57.474Z,98558.16
2022-10-28T11:11:33.218Z,98556.38
2022-10-28T11:14:05.138Z,98553.63
2022-10-28T11:16:32.661Z,98545.13
2022-10-28T11:19:16.567Z,98544.19
2022-10-28T11:21:59.322Z,98550.13
2022-10-28T11:24:43.594Z,98546.72
2022-10-28T11:27:19.766Z,98535.16
2022-10-28T11:29:47.820Z,98531.25
2022-10-28T11:32:26.649Z,98527.00
2022-10-28T11:35:30.580Z,98521.31
2022-10-28T11:38:11.669Z,98518.22
2022-10-28T11:40:53.141Z,98535.25
2022-10-28T11:43:28.498Z,98517.97
2022-10-28T11:46:04.420Z,98520.34
2022-10-28T11:48:45.997Z,98520.19
2022-10-28T11:51:31.237Z,98526.00
2022-10-28T11:54:20.902Z,98527.06
2022-10-28T11:56:55.093Z,98520.69
2022-10-28T12:00:02.195Z,98519.78
2022-10-28T12:02:53.559Z,98510.53
2022-10-28T12:05:25.532Z,98512.28
2022-10-28T12:08:08.301Z,98513.22
2022-10-28T12:10:46.834Z,98521.53
2022-10-28T12:13:23.033Z,98508.16
2022-10-28T12:16:00.590Z,98524.50
2022-10-28T12:18:33.926Z,98537.69
2022-10-28T12:21:11.223Z,98521.09
2022-10-28T12:23:42.430Z,98524.97
2022-10-28T12:26:14.618Z,98506.22
2022-10-28T12:28:44.653Z,98513.81
2022-10-28T12:31:21.345Z,98497.22
2022-10-28T12:33:51.930Z,98504.97
2022-10-28T12:36:25.441Z,98509.81
2022-10-28T12:38:59.550Z,98506.06
2022-10-28T12:41:29.039Z,98498.69
2022-10-28T12:44:01.539Z,98475.66
2022-10-28T12:46:35.382Z,98489.75
2022-10-28T12:49:11.369Z,98478.16
2022-10-28T12:51:41.686Z,98488.22
2022-10-28T12:54:22.281Z,98491.19
2022-10-28T12:56:53.289Z,98480.41
2022-10-28T12:59:29.409Z,98477.78
2022-10-28T13:02:01.078Z,98483.09
2022-10-28T13:04:29.330Z,98476.94
2022-10-28T13:07:32.902Z,98481.38
2022-10-28T13:10:14.153Z,98480.88
2022-10-28T13:13:09.464Z,98477.97
2022-10-28T13:15:52.476Z,98483.72
2022-10-28T13:18:49.301Z,98485.00
2022-10-28T13:21:29.139Z,98485.09
2022-10-28T13:24:05.504Z,98478.09
2022-10-28T13:26:36.584Z,98492.84
2022-10-28T13:29:07.888Z,98500.25
2022-10-28T13:31:40.611Z,98496.59
2022-10-28T13:34:10.247Z,98509.59
2022-10-28T13:36:42.626Z,98502.59
2022-10-28T13:39:24.744Z,98498.28
2022-10-28T13:42:23.732Z,98502.34
2022-10-28T13:44:54.041Z,98512.41
2022-10-28T13:47:30.084Z,98503.56
2022-10-28T13:50:25.964Z,98497.41
2022-10-28T13:53:41.851Z,98492.19
2022-10-28T13:56:41.011Z,98503.03
2022-10-28T13:59:22.551Z,98506.69
2022-10-28T14:02:02.226Z,98498.03
2022-10-28T14:04:38.421Z,98497.94
2022-10-28T14:07:21.499Z,98495.91
2022-10-28T14:09:52.259Z,98499.78
2022-10-28T14:12:26.602Z,98491.31
2022-10-28T14:15:16.802Z,98494.41
2022-10-28T14:17:49.118Z,98483.50
2022-10-28T14:20:31.350Z,98492.22
2022-10-28T14:22:59.221Z,98492.25
2022-10-28T14:26:04.298Z,98497.00
2022-10-28T14:28:54.741Z,98498.97
2022-10-28T14:31:45.032Z,98491.81
2022-10-28T14:34:37.600Z,98488.72
2022-10-28T14:37:27.504Z,98485.47
2022-10-28T14:40:07.160Z,98484.03
2022-10-28T14:42:52.202Z,98483.94
2022-10-28T14:45:34.917Z,98483.78
2022-10-28T14:48:23.113Z,98491.31
2022-10-28T14:50:53.788Z,98485.81
2022-10-28T14:53:26.343Z,98484.56
2022-10-28T14:56:00.621Z,98480.53
2022-10-28T14:58:31.540Z,98493.44
2022-10-28T15:01:19.857Z,98480.81
2022-10-28T15:03:50.772Z,98495.25
2022-10-28T15:06:27.836Z,98495.13
2022-10-28T15:08:55.816Z,98497.13
2022-10-28T15:11:23.840Z,98500.25
2022-10-28T15:13:53.554Z,98494.03
2022-10-28T15:16:23.091Z,98492.72
2022-10-28T15:18:52.567Z,98479.88
2022-10-28T15:21:22.295Z,98480.53
2022-10-28T15:24:01.306Z,98481.00
2022-10-28T15:26:28.992Z,98498.53
2022-10-28T15:28:56.865Z,98498.53
2022-10-28T15:31:24.485Z,98495.91
2022-10-28T15:33:52.008Z,98491.13
2022-10-28T15:36:22.200Z,98499.03
2022-10-28T15:38:51.050Z,98497.84
2022-10-28T15:41:49.182Z,98482.25
2022-10-28T15:44:31.378Z,98476.63
2022-10-28T15:47:00.390Z,98478.50
2022-10-28T15:49:39.205Z,98480.59
2022-10-28T15:52:34.662Z,98489.97
2022-10-28T15:55:04.729Z,98487.06
2022-10-28T15:57:48.006Z,98484.78
2022-10-28T16:00:26.553Z,98490.22
2022-10-28T16:02:59.045Z,98493.13
2022-10-28T16:05:54.442Z,98493.31
2022-10-28T16:08:25.423Z,98491.25
2022-10-28T16:10:56.459Z,98491.25
2022-10-28T16:13:37.760Z,98496.25
2022-10-28T16:16:09.318Z,98497.16
2022-10-28T16:18:42.962Z,98490.25
2022-10-28T16:21:18.619Z,98494.63
2022-10-28T16:23:48.745Z,98486.13
2022-10-28T16:26:16.634Z,98488.00
2022-10-28T16:28:45.561Z,98489.03
2022-10-28T16:31:15.991Z,98494.22
2022-10-28T16:33:44.089Z,98490.28
2022-10-28T16:36:12.201Z,98490.91
2022-10-28T16:38:40.006Z,98496.38
2022-10-28T16:41:11.934Z,98494.44
2022-10-28T16:43:39.410Z,98490.72
2022-10-28T16:46:08.621Z,98497.66
2022-10-28T16:48:36.083Z,98495.75
2022-10-28T16:51:06.181Z,98500.31
2022-10-28T16:53:33.746Z,98502.59
2022-10-28T16:56:01.185Z,98498.41
2022-10-28T16:58:30.006Z,98494.94
2022-10-28T17:00:57.850Z,98493.69
2022-10-28T17:03:27.004Z,98499.94
2022-10-28T17:05:54.882Z,98495.75
2022-10-28T17:08:42.296Z,98490.31
2022-10-28T17:11:14.743Z,98504.69
2022-10-28T17:13:42.193Z,98497.00
2022-10-28T17:16:09.633Z,98503.66
2022-10-28T17:18:38.465Z,98498.66
2022-10-28T17:21:06.394Z,98498.63
2022-10-28T17:23:33.845Z,98494.09
2022-10-28T17:26:03.341Z,98483.69
2022-10-28T17:28:30.901Z,98488.50
2022-10-28T17:31:03.349Z,98480.38
2022-10-28T17:33:31.013Z,98491.63
2022-10-28T17:36:03.074Z,98493.09
2022-10-28T17:38:30.805Z,98493.28
2022-10-28T17:40:58.741Z,98490.38
2022-10-28T17:43:26.210Z,98492.88
2022-10-28T17:45:54.915Z,98505.97
2022-10-28T17:48:22.506Z,98503.28
2022-10-28T17:50:54.663Z,98493.50
2022-10-28T17:53:23.602Z,98498.44
2022-10-28T17:55:56.821Z,98491.59
2022-10-28T17:58:24.329Z,98500.13
2022-10-28T18:00:57.394Z,98505.97
2022-10-28T18:03:25.210Z,98506.41
2022-10-28T18:05:53.077Z,98511.38
2022-10-28T18:08:21.482Z,98508.25
2022-10-28T18:10:54.840Z,98510.94
2022-10-28T18:13:26.329Z,98509.94
2022-10-28T18:15:54.010Z,98512.63
2022-10-28T18:18:21.509Z,98513.66
2022-10-28T18:20:53.510Z,98508.66
2022-10-28T18:23:21.015Z,98512.41
2022-10-28T18:25:57.678Z,98516.78
2022-10-28T18:28:26.554Z,98517.41
2022-10-28T18:30:54.038Z,98521.13
2022-10-28T18:33:21.745Z,98523.03
2022-10-28T18:35:49.208Z,98513.25
2022-10-28T18:38:16.694Z,98513.00
2022-10-28T18:40:47.786Z,98504.31
2022-10-28T18:43:15.585Z,98496.22
2022-10-28T18:45:44.616Z,98508.25
2022-10-28T18:48:12.078Z,98510.13
2022-10-28T18:50:39.556Z,98510.75
2022-10-28T18:53:07.010Z,98505.34
2022-10-28T18:55:34.491Z,98507.00
2022-10-28T18:58:02.014Z,98507.00
2022-10-28T19:00:29.583Z,98505.16
2022-10-28T19:02:58.401Z,98510.34
2022-10-28T19:05:25.883Z,98501.56
2022-10-28T19:07:53.663Z,98500.09
2022-10-28T19:10:21.410Z,98500.91
2022-10-28T19:12:52.745Z,98502.59
2022-10-28T19:15:20.573Z,98503.22
2022-10-28T19:17:48.062Z,98505.09
2022-10-28T19:20:16.914Z,98506.41
2022-10-28T19:22:44.450Z,98512.56
2022-10-28T19:25:12.426Z,98508.47
2022-10-28T19:27:39.921Z,98507.84
2022-10-28T19:30:12.398Z,98503.91
2022-10-28T19:32:41.146Z,98504.47
2022-10-28T19:35:09.400Z,98500.34
2022-10-28T19:37:38.209Z,98502.19
2022-10-28T19:40:06.511Z,98495.31
2022-10-28T19:42:33.836Z,98500.53
2022-10-28T19:45:03.768Z,98501.34
2022-10-28T19:47:31.315Z,98500.78
2022-10-28T19:49:58.968Z,98494.69
2022-10-28T19:52:26.455Z,98502.63
2022-10-28T19:54:55.248Z,98498.25
2022-10-28T19:57:22.725Z,98505.28
2022-10-28T19:59:50.195Z,98503.13
2022-10-28T20:02:17.818Z,98508.16
2022-10-28T20:04:45.815Z,98506.09
2022-10-28T20:07:13.270Z,98508.00
2022-10-28T20:09:40.718Z,98509.03
2022-10-28T20:12:09.611Z,98525.50
2022-10-28T20:14:37.178Z,98522.13
2022-10-28T20:17:06.751Z,98521.50
2022-10-28T20:19:34.373Z,98518.19
2022-10-28T20:22:01.847Z,98524.06
2022-10-28T20:24:29.310Z,98522.19
2022-10-28T20:26:56.801Z,98523.81
2022-10-28T20:29:25.597Z,98532.59
2022-10-28T20:31:53.230Z,98526.75
2022-10-28T20:34:20.706Z,98533.38
2022-10-28T20:36:48.402Z,98529.63
2022-10-28T20:39:17.425Z,98538.16
2022-10-28T20:41:46.739Z,98538.34
2022-10-28T20:44:14.669Z,98536.25
2022-10-28T20:46:44.908Z,98531.09
2022-10-28T20:49:13.155Z,98531.69
2022-10-28T20:51:40.559Z,98535.00
2022-10-28T20:54:08.122Z,98535.44
2022-10-28T20:56:37.706Z,98538.31
2022-10-28T20:59:06.043Z,98531.88
2022-10-28T21:01:34.461Z,98534.56
2022-10-28T21:04:05.683Z,98541.97
2022-10-28T21:06:33.615Z,98527.69
2022-10-28T21:09:01.365Z,98533.75
2022-10-28T21:11:29.622Z,98536.22
2022-10-28T21:13:59.250Z,98533.28
2022-10-28T21:16:27.762Z,98532.03
2022-10-28T21:18:55.795Z,98528.47
2022-10-28T21:21:25.298Z,98528.28
2022-10-28T21:23:52.843Z,98528.72
2022-10-28T21:26:20.611Z,98522.25
2022-10-28T21:28:50.349Z,98523.69
2022-10-28T21:31:18.194Z,98525.78
2022-10-28T21:33:46.416Z,98524.28
2022-10-28T21:36:16.048Z,98522.44
2022-10-28T21:38:45.205Z,98527.41
2022-10-28T21:41:14.633Z,98527.81
2022-10-28T21:43:44.980Z,98532.81
2022-10-28T21:46:12.584Z,98530.91
2022-10-28T21:48:40.828Z,98542.34
2022-10-28T21:51:13.520Z,98547.53
2022-10-28T21:53:43.236Z,98559.16
2022-10-28T21:56:17.005Z,98561.84
2022-10-28T21:58:46.912Z,98560.59
2022-10-28T22:01:16.968Z,98561.41
2022-10-28T22:03:44.545Z,98564.09
2022-10-28T22:06:12.230Z,98562.44
2022-10-28T22:08:39.708Z,98561.38
2022-10-28T22:11:09.072Z,98562.66
2022-10-28T22:13:37.916Z,98568.63
2022-10-28T22:16:07.304Z,98563.25
2022-10-28T22:18:36.576Z,98579.03
2022-10-28T22:21:06.397Z,98563.44
2022-10-28T22:23:34.165Z,98578.31
2022-10-28T22:26:02.755Z,98576.63
2022-10-28T22:28:30.234Z,98573.78
2022-10-28T22:31:03.881Z,98565.28
2022-10-28T22:33:31.474Z,98573.09
2022-10-28T22:35:59.720Z,98568.56
2022-10-28T22:38:27.913Z,98559.22
2022-10-28T22:41:06.255Z,98563.84
2022-10-28T22:43:34.323Z,98569.63
2022-10-28T22:46:03.724Z,98571.50
2022-10-28T22:48:31.838Z,98573.97
2022-10-28T22:50:59.499Z,98569.22
2022-10-28T22:53:27.364Z,98574.34
2022-10-28T22:55:55.196Z,98572.72
2022-10-28T22:58:23.618Z,98573.97
2022-10-28T23:00:50.980Z,98569.22
2022-10-28T23:03:20.071Z,98576.69
2022-10-28T23:05:47.572Z,98576.91
2022-10-28T23:08:16.713Z,98580.44
2022-10-28T23:10:44.274Z,98580.81
2022-10-28T23:13:13.575Z,98582.88
2022-10-28T23:15:41.184Z,98590.13
2022-10-28T23:18:08.649Z,98585.78
2022-10-28T23:20:37.588Z,98580.53
2022-10-28T23:23:05.139Z,98587.41
2022-10-28T23:25:32.612Z,98587.59
2022-10-28T23:28:00.113Z,98585.72
2022-10-28T23:30:27.688Z,98581.59
2022-10-28T23:32:57.608Z,98594.38
2022-10-28T23:35:25.101Z,98579.50
2022-10-28T23:37:54.118Z,98586.22
2022-10-28T23:40:21.857Z,98588.25
2022-10-28T23:42:49.312Z,98572.22
2022-10-28T23:45:16.841Z,98579.66
2022-10-28T23:47:44.308Z,98585.06
2022-10-28T23:50:14.676Z,98582.34
2022-10-28T23:52:42.657Z,98581.75
2022-10-28T23:55:11.680Z,98580.59
2022-10-28T23:57:39.167Z,98570.44
